sensor_id;sensor_type;location;lat;lon;timestamp;pressure;altitude;pressure_sealevel;temperature;humidity
72370;BME280;60343;-32.030;115.880;2022-12-18T00:01:35;101264.56;;;28.38;35.46
72370;BME280;60343;-32.030;115.880;2022-12-18T00:04:07;101270.31;;;28.51;35.00
72370;BME280;60343;-32.030;115.880;2022-12-18T00:06:36;101264.19;;;28.75;34.72
72370;BME280;60343;-32.030;115.880;2022-12-18T00:09:04;101255.66;;;28.76;34.22
72370;BME280;60343;-32.030;115.880;2022-12-18T00:11:32;101251.75;;;28.77;34.43
72370;BME280;60343;-32.030;115.880;2022-12-18T00:14:00;101265.97;;;29.05;34.51
72370;BME280;60343;-32.030;115.880;2022-12-18T00:16:34;101252.34;;;28.69;34.34
72370;BME280;60343;-32.030;115.880;2022-12-18T00:19:02;101255.34;;;28.78;34.28
72370;BME280;60343;-32.030;115.880;2022-12-18T00:21:33;101260.91;;;28.63;34.41
72370;BME280;60343;-32.030;115.880;2022-12-18T00:24:01;101255.09;;;28.69;34.61
72370;BME280;60343;-32.030;115.880;2022-12-18T00:26:30;101251.41;;;28.94;34.57
72370;BME280;60343;-32.030;115.880;2022-12-18T00:29:00;101255.41;;;29.22;34.39
72370;BME280;60343;-32.030;115.880;2022-12-18T00:31:28;101247.44;;;29.15;34.55
72370;BME280;60343;-32.030;115.880;2022-12-18T00:34:02;101258.34;;;28.91;34.66
72370;BME280;60343;-32.030;115.880;2022-12-18T00:36:34;101258.66;;;28.70;34.89
72370;BME280;60343;-32.030;115.880;2022-12-18T00:39:04;101258.47;;;28.51;34.52
72370;BME280;60343;-32.030;115.880;2022-12-18T00:41:32;101262.66;;;28.28;34.92
72370;BME280;60343;-32.030;115.880;2022-12-18T00:44:03;101256.31;;;28.33;35.21
72370;BME280;60343;-32.030;115.880;2022-12-18T00:46:32;101255.22;;;28.29;35.38
72370;BME280;60343;-32.030;115.880;2022-12-18T00:49:05;101243.41;;;28.23;35.32
72370;BME280;60343;-32.030;115.880;2022-12-18T00:51:33;101255.78;;;28.31;36.05
72370;BME280;60343;-32.030;115.880;2022-12-18T00:54:01;101240.78;;;28.57;35.20
72370;BME280;60343;-32.030;115.880;2022-12-18T00:56:28;101248.75;;;28.79;35.55
72370;BME280;60343;-32.030;115.880;2022-12-18T00:58:59;101239.13;;;28.66;34.31
72370;BME280;60343;-32.030;115.880;2022-12-18T01:01:27;101243.19;;;28.84;34.42
72370;BME280;60343;-32.030;115.880;2022-12-18T01:06:42;101233.97;;;29.48;34.41
72370;BME280;60343;-32.030;115.880;2022-12-18T01:09:10;101230.31;;;29.62;33.25
72370;BME280;60343;-32.030;115.880;2022-12-18T01:11:38;101233.50;;;29.74;32.74
72370;BME280;60343;-32.030;115.880;2022-12-18T01:14:05;101225.28;;;29.98;32.28
72370;BME280;60343;-32.030;115.880;2022-12-18T01:16:33;101226.13;;;30.51;32.14
72370;BME280;60343;-32.030;115.880;2022-12-18T01:19:01;101223.59;;;31.16;31.80
72370;BME280;60343;-32.030;115.880;2022-12-18T01:21:29;101222.69;;;31.58;30.29
72370;BME280;60343;-32.030;115.880;2022-12-18T01:24:02;101218.78;;;31.40;30.21
72370;BME280;60343;-32.030;115.880;2022-12-18T01:26:30;101217.13;;;31.39;30.56
72370;BME280;60343;-32.030;115.880;2022-12-18T01:28:58;101218.03;;;31.35;29.84
72370;BME280;60343;-32.030;115.880;2022-12-18T01:31:28;101231.09;;;30.92;31.53
72370;BME280;60343;-32.030;115.880;2022-12-18T01:33:56;101217.91;;;31.07;30.66
72370;BME280;60343;-32.030;115.880;2022-12-18T01:36:26;101218.31;;;31.52;30.48
72370;BME280;60343;-32.030;115.880;2022-12-18T01:38:54;101215.06;;;31.96;29.85
72370;BME280;60343;-32.030;115.880;2022-12-18T01:41:29;101216.78;;;31.78;29.06
72370;BME280;60343;-32.030;115.880;2022-12-18T01:43:58;101211.06;;;31.88;28.86
72370;BME280;60343;-32.030;115.880;2022-12-18T01:46:28;101212.25;;;31.69;29.74
72370;BME280;60343;-32.030;115.880;2022-12-18T01:48:57;101210.22;;;31.23;30.35
72370;BME280;60343;-32.030;115.880;2022-12-18T01:51:27;101198.44;;;31.31;30.25
72370;BME280;60343;-32.030;115.880;2022-12-18T01:53:57;101195.81;;;31.59;29.15
72370;BME280;60343;-32.030;115.880;2022-12-18T01:56:32;101197.69;;;31.77;29.13
72370;BME280;60343;-32.030;115.880;2022-12-18T04:15:14;101036.22;;;35.45;19.28
72370;BME280;60343;-32.030;115.880;2022-12-18T04:17:47;101037.66;;;35.51;19.42
72370;BME280;60343;-32.030;115.880;2022-12-18T04:20:15;101035.63;;;35.22;19.39
72370;BME280;60343;-32.030;115.880;2022-12-18T04:22:43;101035.00;;;35.08;19.30
72370;BME280;60343;-32.030;115.880;2022-12-18T04:25:11;101017.75;;;35.32;19.98
72370;BME280;60343;-32.030;115.880;2022-12-18T04:27:39;101013.69;;;35.67;17.04
72370;BME280;60343;-32.030;115.880;2022-12-18T04:30:13;101019.81;;;35.82;18.00
72370;BME280;60343;-32.030;115.880;2022-12-18T04:32:40;101012.19;;;35.99;17.84
72370;BME280;60343;-32.030;115.880;2022-12-18T04:35:08;101007.84;;;35.90;17.37
72370;BME280;60343;-32.030;115.880;2022-12-18T04:37:36;101016.28;;;35.72;18.46
72370;BME280;60343;-32.030;115.880;2022-12-18T04:40:27;101007.06;;;35.81;19.84
72370;BME280;60343;-32.030;115.880;2022-12-18T04:44:37;101004.34;;;36.22;18.66
72370;BME280;60343;-32.030;115.880;2022-12-18T04:45:53;100999.25;;;36.24;18.83
72370;BME280;60343;-32.030;115.880;2022-12-18T04:48:21;101001.63;;;35.46;18.13
72370;BME280;60343;-32.030;115.880;2022-12-18T04:50:48;100984.44;;;34.98;18.97
72370;BME280;60343;-32.030;115.880;2022-12-18T04:53:16;101000.84;;;34.91;19.98
72370;BME280;60343;-32.030;115.880;2022-12-18T04:55:44;100995.75;;;34.67;19.89
72370;BME280;60343;-32.030;115.880;2022-12-18T04:58:12;100997.59;;;34.20;22.03
72370;BME280;60343;-32.030;115.880;2022-12-18T05:00:39;100997.94;;;34.44;21.06
72370;BME280;60343;-32.030;115.880;2022-12-18T05:03:12;100979.72;;;34.90;20.41
72370;BME280;60343;-32.030;115.880;2022-12-18T05:05:40;100975.66;;;35.34;20.63
72370;BME280;60343;-32.030;115.880;2022-12-18T05:08:08;100966.75;;;35.78;20.31
72370;BME280;60343;-32.030;115.880;2022-12-18T05:10:35;100966.28;;;35.38;19.94
72370;BME280;60343;-32.030;115.880;2022-12-18T05:13:03;100966.97;;;35.35;19.60
72370;BME280;60343;-32.030;115.880;2022-12-18T05:15:34;100961.88;;;35.96;19.31
72370;BME280;60343;-32.030;115.880;2022-12-18T05:18:02;100953.28;;;36.30;18.35
72370;BME280;60343;-32.030;115.880;2022-12-18T05:20:35;100948.09;;;36.41;17.09
72370;BME280;60343;-32.030;115.880;2022-12-18T05:23:05;100954.28;;;36.46;17.56
72370;BME280;60343;-32.030;115.880;2022-12-18T05:25:33;100937.16;;;36.48;18.84
72370;BME280;60343;-32.030;115.880;2022-12-18T05:28:01;100942.94;;;36.64;17.05
72370;BME280;60343;-32.030;115.880;2022-12-18T05:30:28;100937.22;;;36.60;16.79
72370;BME280;60343;-32.030;115.880;2022-12-18T05:32:56;100935.44;;;36.88;17.81
72370;BME280;60343;-32.030;115.880;2022-12-18T05:35:24;100924.00;;;37.14;16.99
72370;BME280;60343;-32.030;115.880;2022-12-18T05:37:57;100918.06;;;37.28;15.41
72370;BME280;60343;-32.030;115.880;2022-12-18T05:40:24;100919.69;;;37.29;15.51
72370;BME280;60343;-32.030;115.880;2022-12-18T05:42:52;100910.63;;;37.56;16.23
72370;BME280;60343;-32.030;115.880;2022-12-18T05:45:20;100923.00;;;37.95;16.16
72370;BME280;60343;-32.030;115.880;2022-12-18T05:47:47;100916.38;;;37.88;16.80
72370;BME280;60343;-32.030;115.880;2022-12-18T05:50:15;100911.06;;;37.70;16.95
72370;BME280;60343;-32.030;115.880;2022-12-18T05:52:43;100914.00;;;37.62;16.56
72370;BME280;60343;-32.030;115.880;2022-12-18T05:55:16;100905.47;;;37.70;16.01
72370;BME280;60343;-32.030;115.880;2022-12-18T05:57:44;100903.72;;;37.05;16.40
72370;BME280;60343;-32.030;115.880;2022-12-18T06:00:12;100899.59;;;36.12;17.50
72370;BME280;60343;-32.030;115.880;2022-12-18T06:02:40;100896.50;;;35.64;18.44
72370;BME280;60343;-32.030;115.880;2022-12-18T06:05:08;100891.09;;;35.09;18.58
72370;BME280;60343;-32.030;115.880;2022-12-18T06:07:36;100880.47;;;35.02;19.10
72370;BME280;60343;-32.030;115.880;2022-12-18T06:10:07;100888.78;;;35.19;19.32
72370;BME280;60343;-32.030;115.880;2022-12-18T06:12:42;100881.50;;;35.98;18.20
72370;BME280;60343;-32.030;115.880;2022-12-18T06:15:10;100880.56;;;35.94;17.74
72370;BME280;60343;-32.030;115.880;2022-12-18T06:17:37;100880.25;;;35.75;18.00
72370;BME280;60343;-32.030;115.880;2022-12-18T06:20:08;100873.66;;;35.29;18.38
72370;BME280;60343;-32.030;115.880;2022-12-18T06:22:36;100873.88;;;35.15;18.47
72370;BME280;60343;-32.030;115.880;2022-12-18T06:25:04;100873.03;;;35.23;17.58
72370;BME280;60343;-32.030;115.880;2022-12-18T06:27:32;100865.38;;;35.91;18.46
72370;BME280;60343;-32.030;115.880;2022-12-18T06:30:12;100857.66;;;36.09;18.31
72370;BME280;60343;-32.030;115.880;2022-12-18T06:32:40;100848.28;;;36.59;16.60
72370;BME280;60343;-32.030;115.880;2022-12-18T06:35:08;100853.22;;;36.86;17.30
72370;BME280;60343;-32.030;115.880;2022-12-18T06:37:35;100841.81;;;37.27;15.96
72370;BME280;60343;-32.030;115.880;2022-12-18T06:40:07;100846.69;;;37.55;16.94
72370;BME280;60343;-32.030;115.880;2022-12-18T06:42:35;100849.97;;;37.57;16.99
72370;BME280;60343;-32.030;115.880;2022-12-18T06:45:09;100841.69;;;37.60;17.83
72370;BME280;60343;-32.030;115.880;2022-12-18T06:47:37;100840.41;;;37.58;17.11
72370;BME280;60343;-32.030;115.880;2022-12-18T06:50:05;100827.84;;;37.52;19.52
72370;BME280;60343;-32.030;115.880;2022-12-18T06:52:33;100831.75;;;37.63;18.36
72370;BME280;60343;-32.030;115.880;2022-12-18T06:55:01;100821.78;;;37.90;17.59
72370;BME280;60343;-32.030;115.880;2022-12-18T06:57:29;100822.44;;;38.27;16.85
72370;BME280;60343;-32.030;115.880;2022-12-18T06:59:57;100818.56;;;38.31;15.04
72370;BME280;60343;-32.030;115.880;2022-12-18T07:02:31;100822.50;;;37.47;19.02
72370;BME280;60343;-32.030;115.880;2022-12-18T07:04:59;100809.16;;;36.79;20.18
72370;BME280;60343;-32.030;115.880;2022-12-18T07:07:26;100807.00;;;36.40;19.97
72370;BME280;60343;-32.030;115.880;2022-12-18T07:09:54;100815.56;;;36.02;21.26
72370;BME280;60343;-32.030;115.880;2022-12-18T07:12:22;100816.88;;;35.42;21.46
72370;BME280;60343;-32.030;115.880;2022-12-18T07:14:49;100805.03;;;34.57;23.31
72370;BME280;60343;-32.030;115.880;2022-12-18T07:17:17;100803.53;;;34.04;23.98
72370;BME280;60343;-32.030;115.880;2022-12-18T07:19:50;100810.41;;;33.73;24.46
72370;BME280;60343;-32.030;115.880;2022-12-18T07:22:18;100805.81;;;33.42;24.77
72370;BME280;60343;-32.030;115.880;2022-12-18T07:24:46;100803.97;;;33.20;25.33
72370;BME280;60343;-32.030;115.880;2022-12-18T07:27:13;100803.50;;;33.18;25.52
72370;BME280;60343;-32.030;115.880;2022-12-18T07:29:41;100800.09;;;33.56;24.77
72370;BME280;60343;-32.030;115.880;2022-12-18T07:32:09;100792.88;;;34.15;24.01
72370;BME280;60343;-32.030;115.880;2022-12-18T07:34:36;100794.00;;;34.78;24.20
72370;BME280;60343;-32.030;115.880;2022-12-18T07:37:10;100783.19;;;35.35;24.21
72370;BME280;60343;-32.030;115.880;2022-12-18T07:39:37;100771.66;;;35.66;23.11
72370;BME280;60343;-32.030;115.880;2022-12-18T07:42:08;100776.00;;;35.76;22.77
72370;BME280;60343;-32.030;115.880;2022-12-18T07:44:36;100777.28;;;36.11;23.31
72370;BME280;60343;-32.030;115.880;2022-12-18T07:47:04;100775.47;;;36.27;23.62
72370;BME280;60343;-32.030;115.880;2022-12-18T07:49:33;100779.25;;;36.10;22.74
72370;BME280;60343;-32.030;115.880;2022-12-18T07:52:00;100764.66;;;35.81;23.39
72370;BME280;60343;-32.030;115.880;2022-12-18T07:54:34;100755.75;;;35.66;23.73
72370;BME280;60343;-32.030;115.880;2022-12-18T07:57:01;100750.00;;;35.30;24.37
72370;BME280;60343;-32.030;115.880;2022-12-18T07:59:29;100752.41;;;35.52;24.04
72370;BME280;60343;-32.030;115.880;2022-12-18T08:01:57;100748.88;;;35.64;23.40
72370;BME280;60343;-32.030;115.880;2022-12-18T08:04:24;100746.56;;;35.99;23.38
72370;BME280;60343;-32.030;115.880;2022-12-18T08:06:52;100739.22;;;36.15;22.81
72370;BME280;60343;-32.030;115.880;2022-12-18T08:09:20;100747.34;;;36.20;22.29
72370;BME280;60343;-32.030;115.880;2022-12-18T08:11:53;100740.94;;;35.75;23.23
72370;BME280;60343;-32.030;115.880;2022-12-18T08:14:21;100740.22;;;34.65;24.46
72370;BME280;60343;-32.030;115.880;2022-12-18T08:16:48;100748.13;;;34.46;24.97
72370;BME280;60343;-32.030;115.880;2022-12-18T08:19:16;100752.19;;;34.57;24.28
72370;BME280;60343;-32.030;115.880;2022-12-18T08:21:44;100744.03;;;34.52;24.94
72370;BME280;60343;-32.030;115.880;2022-12-18T08:24:12;100740.22;;;34.65;24.34
72370;BME280;60343;-32.030;115.880;2022-12-18T08:26:39;100756.38;;;34.72;24.76
72370;BME280;60343;-32.030;115.880;2022-12-18T08:29:13;100752.38;;;34.52;24.39
72370;BME280;60343;-32.030;115.880;2022-12-18T08:31:40;100751.59;;;34.43;24.68
72370;BME280;60343;-32.030;115.880;2022-12-18T08:34:09;100743.31;;;34.26;24.33
72370;BME280;60343;-32.030;115.880;2022-12-18T08:36:36;100741.88;;;34.20;25.09
72370;BME280;60343;-32.030;115.880;2022-12-18T08:39:04;100743.66;;;34.16;24.60
72370;BME280;60343;-32.030;115.880;2022-12-18T08:41:32;100739.09;;;34.11;25.24
72370;BME280;60343;-32.030;115.880;2022-12-18T08:44:00;100737.16;;;34.03;24.93
72370;BME280;60343;-32.030;115.880;2022-12-18T08:46:36;100742.44;;;33.70;25.10
72370;BME280;60343;-32.030;115.880;2022-12-18T08:49:04;100749.47;;;33.42;25.34
72370;BME280;60343;-32.030;115.880;2022-12-18T08:51:33;100740.81;;;33.26;25.92
72370;BME280;60343;-32.030;115.880;2022-12-18T08:54:01;100743.84;;;32.99;26.65
72370;BME280;60343;-32.030;115.880;2022-12-18T08:56:29;100741.56;;;32.92;26.90
72370;BME280;60343;-32.030;115.880;2022-12-18T08:58:57;100740.41;;;32.93;25.97
72370;BME280;60343;-32.030;115.880;2022-12-18T09:01:25;100742.38;;;32.93;26.44
72370;BME280;60343;-32.030;115.880;2022-12-18T09:04:01;100748.75;;;33.02;26.04
72370;BME280;60343;-32.030;115.880;2022-12-18T09:06:29;100749.19;;;32.87;25.87
72370;BME280;60343;-32.030;115.880;2022-12-18T09:08:58;100744.41;;;32.70;26.25
72370;BME280;60343;-32.030;115.880;2022-12-18T09:11:27;100748.75;;;32.54;26.70
72370;BME280;60343;-32.030;115.880;2022-12-18T09:13:55;100749.91;;;32.22;26.71
72370;BME280;60343;-32.030;115.880;2022-12-18T09:16:24;100756.41;;;32.17;26.98
72370;BME280;60343;-32.030;115.880;2022-12-18T09:18:58;100745.88;;;32.06;26.67
72370;BME280;60343;-32.030;115.880;2022-12-18T09:21:27;100757.06;;;31.92;26.94
72370;BME280;60343;-32.030;115.880;2022-12-18T09:23:55;100747.50;;;31.76;27.03
72370;BME280;60343;-32.030;115.880;2022-12-18T09:26:24;100764.00;;;31.59;27.32
72370;BME280;60343;-32.030;115.880;2022-12-18T09:28:52;100765.00;;;31.63;26.95
72370;BME280;60343;-32.030;115.880;2022-12-18T09:31:21;100765.38;;;31.56;27.23
72370;BME280;60343;-32.030;115.880;2022-12-18T09:33:50;100770.03;;;31.47;27.27
72370;BME280;60343;-32.030;115.880;2022-12-18T09:36:23;100768.75;;;31.31;27.63
72370;BME280;60343;-32.030;115.880;2022-12-18T09:38:51;100772.03;;;31.19;27.72
72370;BME280;60343;-32.030;115.880;2022-12-18T09:41:32;100775.16;;;31.18;28.41
72370;BME280;60343;-32.030;115.880;2022-12-18T09:44:03;100769.63;;;31.18;28.06
72370;BME280;60343;-32.030;115.880;2022-12-18T09:46:36;100771.47;;;31.08;28.36
72370;BME280;60343;-32.030;115.880;2022-12-18T09:49:12;100775.44;;;31.16;28.71
72370;BME280;60343;-32.030;115.880;2022-12-18T09:51:50;100775.34;;;31.21;28.66
72370;BME280;60343;-32.030;115.880;2022-12-18T09:54:23;100776.34;;;31.25;28.36
72370;BME280;60343;-32.030;115.880;2022-12-18T09:56:53;100776.47;;;31.20;28.17
72370;BME280;60343;-32.030;115.880;2022-12-18T09:59:24;100784.59;;;31.03;28.08
72370;BME280;60343;-32.030;115.880;2022-12-18T10:01:52;100782.84;;;30.93;28.53
72370;BME280;60343;-32.030;115.880;2022-12-18T10:04:20;100788.47;;;30.88;28.87
72370;BME280;60343;-32.030;115.880;2022-12-18T10:06:57;100784.56;;;30.89;28.31
72370;BME280;60343;-32.030;115.880;2022-12-18T10:09:32;100775.88;;;30.82;28.03
72370;BME280;60343;-32.030;115.880;2022-12-18T10:12:07;100782.44;;;30.73;27.92
72370;BME280;60343;-32.030;115.880;2022-12-18T10:14:40;100789.28;;;30.61;27.79
72370;BME280;60343;-32.030;115.880;2022-12-18T10:17:18;100784.06;;;30.46;28.43
72370;BME280;60343;-32.030;115.880;2022-12-18T10:19:53;100784.41;;;30.40;28.42
72370;BME280;60343;-32.030;115.880;2022-12-18T10:22:36;100770.28;;;30.27;28.25
72370;BME280;60343;-32.030;115.880;2022-12-18T10:25:13;100783.06;;;30.23;28.48
72370;BME280;60343;-32.030;115.880;2022-12-18T10:27:42;100794.91;;;30.10;28.74
72370;BME280;60343;-32.030;115.880;2022-12-18T10:30:15;100796.00;;;30.09;29.28
72370;BME280;60343;-32.030;115.880;2022-12-18T10:32:43;100793.66;;;30.03;28.76
72370;BME280;60343;-32.030;115.880;2022-12-18T10:35:17;100802.31;;;29.96;29.07
72370;BME280;60343;-32.030;115.880;2022-12-18T10:38:06;100806.63;;;29.83;29.14
72370;BME280;60343;-32.030;115.880;2022-12-18T10:40:49;100812.91;;;29.70;30.07
72370;BME280;60343;-32.030;115.880;2022-12-18T10:43:21;100820.88;;;29.53;30.35
72370;BME280;60343;-32.030;115.880;2022-12-18T10:46:11;100821.28;;;29.47;30.28
72370;BME280;60343;-32.030;115.880;2022-12-18T10:48:50;100813.97;;;29.37;30.77
72370;BME280;60343;-32.030;115.880;2022-12-18T10:51:23;100815.69;;;29.28;31.02
72370;BME280;60343;-32.030;115.880;2022-12-18T10:54:02;100814.66;;;29.24;30.95
72370;BME280;60343;-32.030;115.880;2022-12-18T10:56:33;100816.38;;;29.20;31.11
72370;BME280;60343;-32.030;115.880;2022-12-18T10:59:03;100812.34;;;29.12;31.67
72370;BME280;60343;-32.030;115.880;2022-12-18T11:01:46;100822.09;;;29.05;32.08
72370;BME280;60343;-32.030;115.880;2022-12-18T11:04:18;100818.78;;;29.02;31.63
72370;BME280;60343;-32.030;115.880;2022-12-18T11:06:55;100829.44;;;28.90;32.07
72370;BME280;60343;-32.030;115.880;2022-12-18T11:09:29;100824.53;;;28.82;32.30
72370;BME280;60343;-32.030;115.880;2022-12-18T11:11:59;100834.78;;;28.82;32.52
72370;BME280;60343;-32.030;115.880;2022-12-18T11:14:29;100844.72;;;28.78;31.73
72370;BME280;60343;-32.030;115.880;2022-12-18T11:16:59;100847.81;;;28.71;32.00
72370;BME280;60343;-32.030;115.880;2022-12-18T11:19:33;100850.31;;;28.68;31.06
72370;BME280;60343;-32.030;115.880;2022-12-18T11:22:03;100844.03;;;28.62;31.62
72370;BME280;60343;-32.030;115.880;2022-12-18T11:24:54;100848.56;;;28.48;31.01
72370;BME280;60343;-32.030;115.880;2022-12-18T11:27:22;100853.53;;;28.51;30.89
72370;BME280;60343;-32.030;115.880;2022-12-18T11:29:51;100854.91;;;28.48;30.87
72370;BME280;60343;-32.030;115.880;2022-12-18T11:32:34;100850.59;;;28.37;30.66
72370;BME280;60343;-32.030;115.880;2022-12-18T11:35:13;100857.81;;;28.33;30.93
72370;BME280;60343;-32.030;115.880;2022-12-18T11:37:43;100865.34;;;28.23;30.59
72370;BME280;60343;-32.030;115.880;2022-12-18T11:40:22;100864.81;;;28.21;30.52
72370;BME280;60343;-32.030;115.880;2022-12-18T11:42:57;100867.59;;;28.15;30.86
72370;BME280;60343;-32.030;115.880;2022-12-18T11:45:29;100864.03;;;28.10;30.89
72370;BME280;60343;-32.030;115.880;2022-12-18T11:48:00;100866.56;;;28.06;31.10
72370;BME280;60343;-32.030;115.880;2022-12-18T11:50:38;100866.34;;;27.93;31.28
72370;BME280;60343;-32.030;115.880;2022-12-18T11:53:11;100876.63;;;27.82;31.51
72370;BME280;60343;-32.030;115.880;2022-12-18T11:55:54;100883.56;;;27.74;31.91
72370;BME280;60343;-32.030;115.880;2022-12-18T11:58:33;100874.31;;;27.55;32.43
72370;BME280;60343;-32.030;115.880;2022-12-18T12:01:15;100880.38;;;27.42;32.64
72370;BME280;60343;-32.030;115.880;2022-12-18T12:04:12;100879.03;;;27.50;32.59
72370;BME280;60343;-32.030;115.880;2022-12-18T12:06:49;100882.28;;;27.47;33.06
72370;BME280;60343;-32.030;115.880;2022-12-18T12:09:26;100879.09;;;27.29;32.98
72370;BME280;60343;-32.030;115.880;2022-12-18T12:12:13;100880.16;;;27.33;33.19
72370;BME280;60343;-32.030;115.880;2022-12-18T12:14:49;100875.25;;;27.30;33.38
72370;BME280;60343;-32.030;115.880;2022-12-18T12:17:24;100875.25;;;27.25;33.25
72370;BME280;60343;-32.030;115.880;2022-12-18T12:19:59;100870.84;;;27.24;33.24
72370;BME280;60343;-32.030;115.880;2022-12-18T12:22:33;100873.34;;;27.21;33.30
72370;BME280;60343;-32.030;115.880;2022-12-18T12:25:28;100876.38;;;27.19;33.58
72370;BME280;60343;-32.030;115.880;2022-12-18T12:28:15;100883.81;;;27.14;33.75
72370;BME280;60343;-32.030;115.880;2022-12-18T12:31:05;100883.03;;;27.03;33.89
72370;BME280;60343;-32.030;115.880;2022-12-18T12:33:43;100885.22;;;27.01;34.12
72370;BME280;60343;-32.030;115.880;2022-12-18T12:36:22;100892.13;;;26.88;34.25
72370;BME280;60343;-32.030;115.880;2022-12-18T12:38:56;100886.91;;;26.77;34.53
72370;BME280;60343;-32.030;115.880;2022-12-18T12:41:28;100891.31;;;26.73;34.98
72370;BME280;60343;-32.030;115.880;2022-12-18T12:44:06;100890.22;;;26.69;34.81
72370;BME280;60343;-32.030;115.880;2022-12-18T12:46:37;100891.91;;;26.55;34.91
72370;BME280;60343;-32.030;115.880;2022-12-18T12:49:11;100893.53;;;26.61;35.08
72370;BME280;60343;-32.030;115.880;2022-12-18T12:51:41;100894.63;;;26.55;35.06
72370;BME280;60343;-32.030;115.880;2022-12-18T12:54:15;100899.84;;;26.51;35.13
72370;BME280;60343;-32.030;115.880;2022-12-18T12:56:45;100903.16;;;26.48;35.47
72370;BME280;60343;-32.030;115.880;2022-12-18T12:59:25;100898.75;;;26.47;35.35
72370;BME280;60343;-32.030;115.880;2022-12-18T13:01:59;100897.66;;;26.38;35.76
72370;BME280;60343;-32.030;115.880;2022-12-18T13:04:34;100906.97;;;26.27;36.10
72370;BME280;60343;-32.030;115.880;2022-12-18T13:07:10;100905.91;;;26.28;35.97
72370;BME280;60343;-32.030;115.880;2022-12-18T13:12:37;100907.78;;;26.12;36.63
72370;BME280;60343;-32.030;115.880;2022-12-18T13:15:29;100918.22;;;26.15;36.50
72370;BME280;60343;-32.030;115.880;2022-12-18T13:18:15;100914.91;;;26.08;36.61
72370;BME280;60343;-32.030;115.880;2022-12-18T13:20:44;100916.56;;;26.04;36.93
72370;BME280;60343;-32.030;115.880;2022-12-18T13:23:30;100914.06;;;25.97;37.24
72370;BME280;60343;-32.030;115.880;2022-12-18T13:25:59;100916.25;;;25.90;37.55
72370;BME280;60343;-32.030;115.880;2022-12-18T13:28:51;100925.59;;;25.89;37.56
72370;BME280;60343;-32.030;115.880;2022-12-18T13:34:22;100926.38;;;25.80;37.86
72370;BME280;60343;-32.030;115.880;2022-12-18T13:36:50;100923.06;;;25.78;38.01
72370;BME280;60343;-32.030;115.880;2022-12-18T13:39:35;100925.22;;;25.71;38.11
72370;BME280;60343;-32.030;115.880;2022-12-18T13:48:00;100920.22;;;25.52;38.70
72370;BME280;60343;-32.030;115.880;2022-12-18T13:50:35;100930.34;;;25.52;38.69
72370;BME280;60343;-32.030;115.880;2022-12-18T13:53:04;100927.81;;;25.40;38.98
72370;BME280;60343;-32.030;115.880;2022-12-18T13:55:33;100923.44;;;25.34;39.18
72370;BME280;60343;-32.030;115.880;2022-12-18T13:58:05;100927.22;;;25.23;39.47
72370;BME280;60343;-32.030;115.880;2022-12-18T14:00:33;100926.69;;;25.31;39.25
72370;BME280;60343;-32.030;115.880;2022-12-18T14:03:01;100928.91;;;25.29;39.44
72370;BME280;60343;-32.030;115.880;2022-12-18T14:05:36;100926.63;;;25.16;39.59
72370;BME280;60343;-32.030;115.880;2022-12-18T14:08:11;100921.09;;;25.06;40.03
72370;BME280;60343;-32.030;115.880;2022-12-18T14:10:46;100918.53;;;24.89;40.18
72370;BME280;60343;-32.030;115.880;2022-12-18T14:13:18;100916.53;;;24.79;40.72
72370;BME280;60343;-32.030;115.880;2022-12-18T14:15:50;100913.19;;;24.72;40.80
72370;BME280;60343;-32.030;115.880;2022-12-18T14:18:22;100913.47;;;24.76;40.81
72370;BME280;60343;-32.030;115.880;2022-12-18T14:20:58;100906.56;;;24.63;41.09
72370;BME280;60343;-32.030;115.880;2022-12-18T14:23:39;100910.38;;;24.62;41.22
72370;BME280;60343;-32.030;115.880;2022-12-18T14:26:22;100918.25;;;24.54;41.30
72370;BME280;60343;-32.030;115.880;2022-12-18T14:28:51;100911.22;;;24.31;41.84
72370;BME280;60343;-32.030;115.880;2022-12-18T14:31:24;100911.56;;;24.13;42.56
72370;BME280;60343;-32.030;115.880;2022-12-18T14:33:55;100911.66;;;24.18;42.40
72370;BME280;60343;-32.030;115.880;2022-12-18T14:36:34;100916.16;;;24.07;42.55
72370;BME280;60343;-32.030;115.880;2022-12-18T14:39:04;100909.81;;;24.02;42.88
72370;BME280;60343;-32.030;115.880;2022-12-18T14:41:32;100911.13;;;23.94;42.92
72370;BME280;60343;-32.030;115.880;2022-12-18T14:44:07;100911.88;;;23.89;42.98
72370;BME280;60343;-32.030;115.880;2022-12-18T14:46:42;100912.53;;;23.75;43.33
72370;BME280;60343;-32.030;115.880;2022-12-18T14:49:24;100916.56;;;23.67;43.63
72370;BME280;60343;-32.030;115.880;2022-12-18T14:52:03;100921.38;;;23.60;43.97
72370;BME280;60343;-32.030;115.880;2022-12-18T14:54:33;100912.81;;;23.51;44.15
72370;BME280;60343;-32.030;115.880;2022-12-18T14:57:05;100922.19;;;23.39;44.50
72370;BME280;60343;-32.030;115.880;2022-12-18T14:59:41;100916.09;;;23.32;44.79
72370;BME280;60343;-32.030;115.880;2022-12-18T15:02:21;100909.91;;;23.20;45.23
72370;BME280;60343;-32.030;115.880;2022-12-18T15:05:03;100908.53;;;23.17;45.62
72370;BME280;60343;-32.030;115.880;2022-12-18T15:07:47;100904.53;;;23.25;45.28
72370;BME280;60343;-32.030;115.880;2022-12-18T15:10:17;100903.97;;;23.23;45.27
72370;BME280;60343;-32.030;115.880;2022-12-18T15:12:48;100905.69;;;23.29;45.41
72370;BME280;60343;-32.030;115.880;2022-12-18T15:18:16;100911.50;;;23.16;45.57